Time,TemperatureF,DewpointF,PressureIn,WindDirection,WindDirectionDegrees,WindSpeedMPH,WindSpeedGustMPH,Humidity,HourlyPrecipIn,Conditions,Clouds,dailyrainin,SoftwareType,DateUTC
2013-12-13 00:00:00,30.1,24.4,30.45,WSW,243,0.0,0.0,79,0.00,,CLR,0.00,VWS V14.01,2013-12-13 05:00:00,
2013-12-13 00:01:00,30.1,24.1,30.45,WSW,243,0.0,0.0,78,0.00,,CLR,0.00,VWS V14.01,2013-12-13 05:01:00,
2013-12-13 00:06:00,30.3,24.3,30.45,WSW,243,0.0,0.0,78,0.00,,CLR,0.00,VWS V14.01,2013-12-13 05:06:00,
2013-12-13 00:11:00,30.3,23.7,30.44,WSW,243,0.0,0.0,76,0.00,,CLR,0.00,VWS V14.01,2013-12-13 05:11:00,
2013-12-13 00:16:00,30.3,24.0,30.45,WSW,243,0.0,1.0,77,0.00,,CLR,0.00,VWS V14.01,2013-12-13 05:16:00,
2013-12-13 00:21:00,30.3,23.7,30.46,WSW,243,0.0,1.0,76,0.00,,CLR,0.00,VWS V14.01,2013-12-13 05:21:00,
2013-12-13 00:26:00,30.2,23.6,30.46,WSW,243,0.0,1.0,76,0.00,,CLR,0.00,VWS V14.01,2013-12-13 05:26:00,
2013-12-13 00:30:00,30.4,23.8,30.46,SW,236,0.0,1.0,76,0.00,,CLR,0.00,VWS V15.00,2013-12-13 05:30:00,
2013-12-13 00:31:00,30.6,22.7,30.47,West,280,0.0,2.0,72,0.00,,CLR,0.00,VWS V14.01,2013-12-13 05:31:00,
2013-12-13 00:36:00,30.9,23.0,30.46,WNW,284,0.0,3.0,72,0.00,,CLR,0.00,VWS V14.01,2013-12-13 05:36:00,
2013-12-13 00:41:00,30.9,23.0,30.46,WNW,284,0.0,3.0,72,0.00,,CLR,0.00,VWS V14.01,2013-12-13 05:41:00,
2013-12-13 00:46:00,30.9,22.3,30.46,WNW,284,0.0,3.0,70,0.00,,CLR,0.00,VWS V14.01,2013-12-13 05:46:00,
2013-12-13 00:51:00,30.9,23.0,30.45,WNW,284,0.0,3.0,72,0.00,,CLR,0.00,VWS V14.01,2013-12-13 05:51:00,
2013-12-13 00:56:00,30.8,23.5,30.45,WNW,284,0.0,3.0,74,0.00,,CLR,0.00,VWS V14.01,2013-12-13 05:56:00,
2013-12-13 01:00:00,30.7,24.0,30.45,WNW,284,0.0,3.0,76,0.00,,CLR,0.00,VWS V15.00,2013-12-13 06:00:00,
2013-12-13 01:01:00,30.7,23.7,30.45,WNW,284,0.0,0.0,75,0.00,,CLR,0.00,VWS V14.01,2013-12-13 06:01:00,
2013-12-13 01:06:00,30.5,23.5,30.44,WNW,284,0.0,0.0,75,0.00,,CLR,0.00,VWS V14.01,2013-12-13 06:06:00,
2013-12-13 01:11:00,30.3,23.7,30.44,WNW,284,0.0,0.0,76,0.00,,CLR,0.00,VWS V14.01,2013-12-13 06:11:00,
2013-12-13 01:16:00,30.1,23.5,30.44,WNW,284,0.0,0.0,76,0.00,,CLR,0.00,VWS V14.01,2013-12-13 06:16:00,
2013-12-13 01:21:00,30.0,24.0,30.44,WNW,284,0.0,0.0,78,0.00,,CLR,0.00,VWS V14.01,2013-12-13 06:21:00,
2013-12-13 01:26:00,29.8,23.5,30.44,WNW,284,0.0,0.0,77,0.00,,CLR,0.00,VWS V14.01,2013-12-13 06:26:00,
2013-12-13 01:30:00,29.7,23.4,30.44,WNW,284,0.0,0.0,77,0.00,,CLR,0.00,VWS V14.01,2013-12-13 06:30:00,
2013-12-13 01:31:00,29.6,23.3,30.44,WNW,284,0.0,0.0,77,0.00,,CLR,0.00,VWS V14.01,2013-12-13 06:31:00,
2013-12-13 01:36:00,29.5,23.5,30.44,WNW,284,0.0,0.0,78,0.00,,CLR,0.00,VWS V14.01,2013-12-13 06:36:00,
2013-12-13 01:41:00,29.4,23.4,30.43,WNW,284,0.0,0.0,78,0.00,,CLR,0.00,VWS V14.01,2013-12-13 06:41:00,
2013-12-13 01:46:00,29.3,23.9,30.43,WNW,284,0.0,0.0,80,0.00,,CLR,0.00,VWS V14.01,2013-12-13 06:46:00,
2013-12-13 01:51:00,29.2,23.8,30.43,WNW,284,0.0,0.0,80,0.00,,CLR,0.00,VWS V14.01,2013-12-13 06:51:00,
2013-12-13 01:56:00,29.0,24.2,30.43,WNW,284,0.0,0.0,82,0.00,,CLR,0.00,VWS V14.01,2013-12-13 06:56:00,
2013-12-13 02:00:00,29.0,23.9,30.43,WNW,284,0.0,0.0,81,0.00,,CLR,0.00,VWS V14.01,2013-12-13 07:00:00,
2013-12-13 02:01:00,29.0,23.9,30.43,WNW,284,0.0,0.0,81,0.00,,CLR,0.00,VWS V14.01,2013-12-13 07:01:00,
2013-12-13 02:06:00,28.9,24.1,30.43,WNW,284,0.0,0.0,82,0.00,,CLR,0.00,VWS V14.01,2013-12-13 07:06:00,
2013-12-13 02:11:00,28.8,24.0,30.43,WNW,284,0.0,0.0,82,0.00,,CLR,0.00,VWS V14.01,2013-12-13 07:11:00,
2013-12-13 02:16:00,28.7,23.9,30.43,WNW,284,0.0,0.0,82,0.00,,CLR,0.00,VWS V14.01,2013-12-13 07:16:00,
2013-12-13 02:21:00,28.5,23.4,30.42,WNW,284,0.0,0.0,81,0.00,,CLR,0.00,VWS V14.01,2013-12-13 07:21:00,
2013-12-13 02:26:00,28.5,23.7,30.42,WNW,284,0.0,0.0,82,0.00,,CLR,0.00,VWS V14.01,2013-12-13 07:26:00,
2013-12-13 02:30:00,28.4,23.9,30.42,WNW,284,0.0,0.0,83,0.00,,CLR,0.00,VWS V15.00,2013-12-13 07:30:00,
2013-12-13 02:31:00,28.4,23.9,30.42,WNW,284,0.0,0.0,83,0.00,,CLR,0.00,VWS V14.01,2013-12-13 07:31:00,
2013-12-13 02:36:00,28.3,23.8,30.42,WNW,284,0.0,0.0,83,0.00,,CLR,0.00,VWS V14.01,2013-12-13 07:36:00,
2013-12-13 02:41:00,28.4,24.2,30.43,WNW,284,0.0,0.0,84,0.00,,CLR,0.00,VWS V14.01,2013-12-13 07:41:00,
2013-12-13 02:46:00,28.4,24.2,30.43,WNW,284,0.0,0.0,84,0.00,,CLR,0.00,VWS V14.01,2013-12-13 07:46:00,
2013-12-13 02:51:00,28.3,24.1,30.43,WNW,284,0.0,0.0,84,0.00,,CLR,0.00,VWS V14.01,2013-12-13 07:51:00,
2013-12-13 02:56:00,28.1,23.9,30.43,WNW,284,0.0,0.0,84,0.00,,CLR,0.00,VWS V14.01,2013-12-13 07:56:00,
2013-12-13 03:00:00,28.0,23.8,30.43,WNW,284,0.0,0.0,84,0.00,,CLR,0.00,VWS V15.00,2013-12-13 08:00:00,
2013-12-13 03:01:00,27.9,23.7,30.43,WNW,284,0.0,0.0,84,0.00,,CLR,0.00,VWS V14.01,2013-12-13 08:01:00,
2013-12-13 03:06:00,27.9,24.3,30.43,WNW,284,0.0,0.0,86,0.00,,CLR,0.00,VWS V14.01,2013-12-13 08:06:00,
2013-12-13 03:11:00,28.0,24.4,30.43,WNW,284,0.0,0.0,86,0.00,,CLR,0.00,VWS V14.01,2013-12-13 08:11:00,
2013-12-13 03:16:00,27.9,24.3,30.43,WNW,284,0.0,0.0,86,0.00,,CLR,0.00,VWS V14.01,2013-12-13 08:16:00,
2013-12-13 03:21:00,27.8,24.2,30.43,WNW,284,0.0,0.0,86,0.00,,CLR,0.00,VWS V14.01,2013-12-13 08:21:00,
2013-12-13 03:26:00,27.7,24.1,30.44,WNW,284,0.0,0.0,86,0.00,,CLR,0.00,VWS V14.01,2013-12-13 08:26:00,
2013-12-13 03:30:00,27.7,24.1,30.44,WNW,284,0.0,0.0,86,0.00,,CLR,0.00,VWS V14.01,2013-12-13 08:30:00,
2013-12-13 03:31:00,27.6,24.0,30.43,WNW,284,0.0,0.0,86,0.00,,CLR,0.00,VWS V14.01,2013-12-13 08:31:00,
2013-12-13 03:36:00,27.6,24.2,30.43,WNW,284,0.0,0.0,87,0.00,,CLR,0.00,VWS V14.01,2013-12-13 08:36:00,
2013-12-13 03:41:00,27.6,24.2,30.43,WNW,284,0.0,0.0,87,0.00,,CLR,0.00,VWS V14.01,2013-12-13 08:41:00,
2013-12-13 03:46:00,27.6,24.2,30.44,WNW,284,0.0,0.0,87,0.00,,CLR,0.00,VWS V14.01,2013-12-13 08:46:00,
2013-12-13 03:51:00,27.5,24.1,30.43,WNW,284,0.0,0.0,87,0.00,,CLR,0.00,VWS V14.01,2013-12-13 08:51:00,
2013-12-13 03:56:00,27.4,24.0,30.43,WNW,284,0.0,0.0,87,0.00,,CLR,0.00,VWS V14.01,2013-12-13 08:56:00,
2013-12-13 04:00:00,27.4,24.3,30.43,WNW,284,0.0,0.0,88,0.00,,CLR,0.00,VWS V15.00,2013-12-13 09:00:00,
2013-12-13 04:01:00,27.3,24.2,30.43,WNW,284,0.0,0.0,88,0.00,,CLR,0.00,VWS V14.01,2013-12-13 09:01:00,
2013-12-13 04:06:00,27.2,24.1,30.43,WNW,284,0.0,0.0,88,0.00,,CLR,0.00,VWS V14.01,2013-12-13 09:06:00,
2013-12-13 04:11:00,27.1,24.0,30.43,WNW,284,0.0,0.0,88,0.00,,CLR,0.00,VWS V14.01,2013-12-13 09:11:00,
2013-12-13 04:16:00,27.0,23.9,30.42,WNW,284,0.0,0.0,88,0.00,,CLR,0.00,VWS V14.01,2013-12-13 09:16:00,
2013-12-13 04:21:00,26.9,23.8,30.42,WNW,284,0.0,0.0,88,0.00,,CLR,0.00,VWS V14.01,2013-12-13 09:21:00,
2013-12-13 04:26:00,26.8,24.0,30.42,WNW,284,0.0,0.0,89,0.00,,CLR,0.00,VWS V14.01,2013-12-13 09:26:00,
2013-12-13 04:30:00,26.9,24.1,30.42,WNW,284,0.0,0.0,89,0.00,,CLR,0.00,VWS V14.01,2013-12-13 09:30:00,
2013-12-13 04:31:00,26.9,24.4,30.42,WNW,284,0.0,0.0,90,0.00,,CLR,0.00,VWS V14.01,2013-12-13 09:31:00,
2013-12-13 04:36:00,27.0,24.5,30.42,WNW,284,0.0,0.0,90,0.00,,CLR,0.00,VWS V14.01,2013-12-13 09:36:00,
2013-12-13 04:41:00,27.0,24.2,30.42,WNW,284,0.0,0.0,89,0.00,,CLR,0.00,VWS V14.01,2013-12-13 09:41:00,
2013-12-13 04:46:00,26.9,24.1,30.42,WNW,284,0.0,0.0,89,0.00,,CLR,0.00,VWS V14.01,2013-12-13 09:46:00,
2013-12-13 04:51:00,26.7,24.2,30.42,WNW,284,0.0,0.0,90,0.00,,CLR,0.00,VWS V14.01,2013-12-13 09:51:00,
2013-12-13 04:56:00,26.7,24.2,30.42,WNW,284,0.0,0.0,90,0.00,,CLR,0.00,VWS V14.01,2013-12-13 09:56:00,
2013-12-13 05:00:00,26.6,24.1,30.41,WNW,284,0.0,0.0,90,0.00,,CLR,0.00,VWS V14.01,2013-12-13 10:00:00,
2013-12-13 05:01:00,26.6,24.1,30.41,WNW,284,0.0,0.0,90,0.00,,CLR,0.00,VWS V14.01,2013-12-13 10:01:00,
2013-12-13 05:06:00,26.5,24.0,30.41,WNW,284,0.0,0.0,90,0.00,,CLR,0.00,VWS V14.01,2013-12-13 10:06:00,
2013-12-13 05:11:00,26.5,24.2,30.41,WNW,284,0.0,0.0,91,0.00,,CLR,0.00,VWS V14.01,2013-12-13 10:11:00,
2013-12-13 05:16:00,26.5,24.0,30.41,WNW,284,0.0,0.0,90,0.00,,CLR,0.00,VWS V14.01,2013-12-13 10:16:00,
2013-12-13 05:21:00,26.5,24.2,30.41,WNW,284,0.0,0.0,91,0.00,,CLR,0.00,VWS V14.01,2013-12-13 10:21:00,
2013-12-13 05:26:00,26.4,23.9,30.41,WNW,284,0.0,0.0,90,0.00,,CLR,0.00,VWS V14.01,2013-12-13 10:26:00,
2013-12-13 05:30:00,26.4,23.9,30.41,WNW,284,0.0,0.0,90,0.00,,CLR,0.00,VWS V14.01,2013-12-13 10:30:00,
2013-12-13 05:31:00,26.3,23.8,30.41,WNW,284,0.0,0.0,90,0.00,,CLR,0.00,VWS V14.01,2013-12-13 10:31:00,
2013-12-13 05:36:00,26.3,23.8,30.41,WNW,284,0.0,0.0,90,0.00,,CLR,0.00,VWS V14.01,2013-12-13 10:36:00,
2013-12-13 05:41:00,26.3,23.8,30.41,WNW,284,0.0,0.0,90,0.00,,CLR,0.00,VWS V14.01,2013-12-13 10:41:00,
2013-12-13 05:46:00,26.3,23.8,30.40,WNW,284,0.0,0.0,90,0.00,,CLR,0.00,VWS V14.01,2013-12-13 10:46:00,
2013-12-13 05:51:00,26.3,23.8,30.41,WNW,284,0.0,0.0,90,0.00,,CLR,0.00,VWS V14.01,2013-12-13 10:51:00,
2013-12-13 05:56:00,26.3,23.8,30.40,WNW,284,0.0,0.0,90,0.00,,CLR,0.00,VWS V14.01,2013-12-13 10:56:00,
2013-12-13 06:00:00,26.3,23.8,30.40,WNW,284,0.0,0.0,90,0.00,,CLR,0.00,VWS V15.00,2013-12-13 11:00:00,
2013-12-13 06:01:00,26.3,23.8,30.40,WNW,284,0.0,0.0,90,0.00,,CLR,0.00,VWS V14.01,2013-12-13 11:01:00,
2013-12-13 06:06:00,26.1,23.6,30.40,WNW,284,0.0,0.0,90,0.00,,CLR,0.00,VWS V14.01,2013-12-13 11:06:00,
2013-12-13 06:11:00,26.1,23.6,30.40,WNW,284,0.0,0.0,90,0.00,,CLR,0.00,VWS V14.01,2013-12-13 11:11:00,
2013-12-13 06:15:00,26.0,23.5,30.40,WNW,284,0.0,0.0,90,0.00,,CLR,0.00,VWS V14.01,2013-12-13 11:15:00,
2013-12-13 06:20:00,26.0,23.7,30.40,WNW,284,0.0,0.0,91,0.00,,CLR,0.00,VWS V14.01,2013-12-13 11:20:00,
2013-12-13 06:25:00,25.9,23.6,30.40,WNW,284,0.0,0.0,91,0.00,,CLR,0.00,VWS V14.01,2013-12-13 11:25:00,
2013-12-13 06:30:00,25.8,23.5,30.40,WNW,284,0.0,0.0,91,0.00,,CLR,0.00,VWS V14.01,2013-12-13 11:30:00,
2013-12-13 06:35:00,25.7,23.4,30.41,WNW,284,0.0,0.0,91,0.00,,CLR,0.00,VWS V14.01,2013-12-13 11:35:00,
2013-12-13 06:40:00,25.6,23.1,30.40,WNW,284,0.0,0.0,90,0.00,,CLR,0.00,VWS V14.01,2013-12-13 11:40:00,
2013-12-13 06:45:00,25.5,23.2,30.40,WNW,284,0.0,0.0,91,0.00,,CLR,0.00,VWS V14.01,2013-12-13 11:45:00,
2013-12-13 06:50:00,25.4,23.1,30.41,WNW,284,0.0,0.0,91,0.00,,CLR,0.00,VWS V14.01,2013-12-13 11:50:00,
2013-12-13 06:55:00,25.4,23.1,30.41,WNW,284,0.0,0.0,91,0.00,,CLR,0.00,VWS V14.01,2013-12-13 11:55:00,
2013-12-13 07:00:00,25.6,23.3,30.41,WNW,284,0.0,0.0,91,0.00,,CLR,0.00,VWS V14.01,2013-12-13 12:00:00,
2013-12-13 07:05:00,25.7,23.4,30.41,WNW,284,0.0,0.0,91,0.00,,CLR,0.00,VWS V14.01,2013-12-13 12:05:00,
2013-12-13 07:10:00,25.7,23.4,30.41,WNW,284,0.0,0.0,91,0.00,,CLR,0.00,VWS V14.01,2013-12-13 12:10:00,
2013-12-13 07:15:00,25.7,23.4,30.41,WNW,284,0.0,0.0,91,0.00,,CLR,0.00,VWS V14.01,2013-12-13 12:15:00,
2013-12-13 07:20:00,25.6,23.3,30.41,WNW,284,0.0,0.0,91,0.00,,CLR,0.00,VWS V14.01,2013-12-13 12:20:00,
2013-12-13 07:24:00,25.6,23.3,30.41,WNW,284,0.0,0.0,91,0.00,,CLR,0.00,VWS V14.01,2013-12-13 12:24:00,
2013-12-13 07:29:00,25.6,23.3,30.41,WNW,284,0.0,0.0,91,0.00,,CLR,0.00,VWS V14.01,2013-12-13 12:29:00,
2013-12-13 07:30:00,25.6,23.3,30.41,WNW,284,0.0,0.0,91,0.00,,FEW095,0.00,VWS V15.00,2013-12-13 12:30:00,
2013-12-13 07:34:00,25.6,23.3,30.41,WNW,284,0.0,0.0,91,0.00,,CLR,0.00,VWS V14.01,2013-12-13 12:34:00,
2013-12-13 07:39:00,25.6,23.3,30.41,WNW,284,0.0,0.0,91,0.00,,CLR,0.00,VWS V14.01,2013-12-13 12:39:00,
2013-12-13 07:44:00,25.6,23.6,30.41,WNW,284,0.0,0.0,92,0.00,,CLR,0.00,VWS V14.01,2013-12-13 12:44:00,
2013-12-13 07:49:00,25.6,23.3,30.41,WNW,284,0.0,0.0,91,0.00,,CLR,0.00,VWS V14.01,2013-12-13 12:49:00,
2013-12-13 07:54:00,25.6,23.3,30.42,WNW,284,0.0,0.0,91,0.00,,CLR,0.00,VWS V14.01,2013-12-13 12:54:00,
2013-12-13 07:59:00,25.6,23.3,30.41,WNW,284,0.0,0.0,91,0.00,,CLR,0.00,VWS V14.01,2013-12-13 12:59:00,
2013-12-13 08:00:00,25.6,23.3,30.41,WNW,284,0.0,0.0,91,0.00,,FEW095,0.00,VWS V15.00,2013-12-13 13:00:00,
2013-12-13 08:04:00,25.4,23.4,30.42,WNW,284,0.0,0.0,92,0.00,,CLR,0.00,VWS V14.01,2013-12-13 13:04:00,
2013-12-13 08:09:00,25.4,23.4,30.42,WNW,284,0.0,0.0,92,0.00,,CLR,0.00,VWS V14.01,2013-12-13 13:09:00,
2013-12-13 08:14:00,25.7,23.7,30.42,WNW,284,0.0,0.0,92,0.00,,CLR,0.00,VWS V14.01,2013-12-13 13:14:00,
2013-12-13 08:19:00,26.3,24.6,30.43,WNW,284,0.0,0.0,93,0.00,,CLR,0.00,VWS V14.01,2013-12-13 13:19:00,
2013-12-13 08:24:00,26.6,24.9,30.42,WNW,284,0.0,0.0,93,0.00,,CLR,0.00,VWS V14.01,2013-12-13 13:24:00,
2013-12-13 08:29:00,26.8,24.8,30.42,WNW,284,0.0,0.0,92,0.00,,CLR,0.00,VWS V14.01,2013-12-13 13:29:00,
2013-12-13 08:30:00,26.9,24.9,30.42,WNW,284,0.0,0.0,92,0.00,,CLR,0.00,VWS V15.00,2013-12-13 13:30:00,
2013-12-13 08:34:00,27.2,25.2,30.43,WNW,284,0.0,0.0,92,0.00,,CLR,0.00,VWS V14.01,2013-12-13 13:34:00,
2013-12-13 08:39:00,27.5,25.2,30.42,WNW,284,0.0,0.0,91,0.00,,CLR,0.00,VWS V14.01,2013-12-13 13:39:00,
2013-12-13 08:44:00,27.8,25.2,30.42,WNW,284,0.0,0.0,90,0.00,,CLR,0.00,VWS V14.01,2013-12-13 13:44:00,
2013-12-13 08:49:00,28.3,25.8,30.43,WNW,284,0.0,0.0,90,0.00,,CLR,0.00,VWS V14.01,2013-12-13 13:49:00,
2013-12-13 08:54:00,28.8,26.2,30.42,WNW,284,0.0,0.0,90,0.00,,CLR,0.00,VWS V14.01,2013-12-13 13:54:00,
2013-12-13 08:59:00,29.6,26.8,30.43,WNW,284,0.0,0.0,89,0.00,,CLR,0.00,VWS V14.01,2013-12-13 13:59:00,
2013-12-13 09:00:00,29.6,26.8,30.43,WNW,284,0.0,0.0,89,0.00,,CLR,0.00,VWS V14.01,2013-12-13 14:00:00,
2013-12-13 09:04:00,30.7,27.9,30.43,WNW,284,0.0,0.0,89,0.00,,CLR,0.00,VWS V14.01,2013-12-13 14:04:00,
2013-12-13 09:09:00,31.9,28.5,30.43,WNW,284,0.0,0.0,87,0.00,,CLR,0.00,VWS V14.01,2013-12-13 14:09:00,
2013-12-13 09:14:00,33.0,28.7,30.43,WNW,284,0.0,0.0,84,0.00,,CLR,0.00,VWS V14.01,2013-12-13 14:14:00,
2013-12-13 09:19:00,34.6,28.8,30.43,WNW,284,0.0,0.0,79,0.00,,CLR,0.00,VWS V14.01,2013-12-13 14:19:00,
2013-12-13 09:24:00,35.6,29.1,30.43,WNW,284,0.0,0.0,77,0.00,,CLR,0.00,VWS V14.01,2013-12-13 14:24:00,
2013-12-13 09:29:00,36.9,29.1,30.43,SSW,213,0.0,0.0,73,0.00,,CLR,0.00,VWS V14.01,2013-12-13 14:29:00,
2013-12-13 09:30:00,37.0,29.2,30.43,SSW,213,0.0,0.0,73,0.00,,CLR,0.00,VWS V14.01,2013-12-13 14:30:00,
2013-12-13 09:34:00,37.6,29.1,30.43,SSW,213,0.0,0.0,71,0.00,,CLR,0.00,VWS V14.01,2013-12-13 14:34:00,
2013-12-13 09:39:00,38.5,29.2,30.43,SSW,213,0.0,1.0,69,0.00,,CLR,0.00,VWS V14.01,2013-12-13 14:39:00,
2013-12-13 09:44:00,39.5,29.1,30.43,SSW,213,0.0,1.0,66,0.00,,CLR,0.00,VWS V14.01,2013-12-13 14:44:00,
2013-12-13 09:48:00,40.2,27.0,30.42,SE,144,0.0,1.0,59,0.00,,CLR,0.00,VWS V14.01,2013-12-13 14:48:00,
2013-12-13 09:53:00,40.4,26.8,30.43,ENE,62,0.0,4.0,58,0.00,,CLR,0.00,VWS V14.01,2013-12-13 14:53:00,
2013-12-13 09:58:00,40.9,27.7,30.43,NE,47,0.0,4.0,59,0.00,,CLR,0.00,VWS V14.01,2013-12-13 14:58:00,
2013-12-13 10:00:00,41.0,27.8,30.43,NE,47,1.0,4.0,59,0.00,,CLR,0.00,VWS V14.01,2013-12-13 15:00:00,
2013-12-13 10:03:00,41.9,28.2,30.43,NE,47,0.0,2.0,58,0.00,,CLR,0.00,VWS V14.01,2013-12-13 15:03:00,
2013-12-13 10:08:00,43.1,28.0,30.43,WNW,290,1.0,2.0,55,0.00,,CLR,0.00,VWS V14.01,2013-12-13 15:08:00,
2013-12-13 10:13:00,43.2,27.7,30.43,SW,234,0.0,2.0,54,0.00,,CLR,0.00,VWS V14.01,2013-12-13 15:13:00,
2013-12-13 10:18:00,43.0,26.1,30.43,SW,234,0.0,2.0,51,0.00,,CLR,0.00,VWS V14.01,2013-12-13 15:18:00,
2013-12-13 10:23:00,43.0,25.2,30.43,SW,234,1.0,2.0,49,0.00,,CLR,0.00,VWS V14.01,2013-12-13 15:23:00,
2013-12-13 10:28:00,43.0,25.2,30.43,SW,234,0.0,3.0,49,0.00,,CLR,0.00,VWS V14.01,2013-12-13 15:28:00,
2013-12-13 10:30:00,43.0,25.2,30.43,SW,234,0.0,3.0,49,0.00,,CLR,0.00,VWS V14.01,2013-12-13 15:30:00,
2013-12-13 10:33:00,43.8,25.4,30.43,SE,139,0.0,2.0,48,0.00,,CLR,0.00,VWS V14.01,2013-12-13 15:33:00,
2013-12-13 10:38:00,44.1,26.2,30.43,SE,139,0.0,2.0,49,0.00,,CLR,0.00,VWS V14.01,2013-12-13 15:38:00,
2013-12-13 10:43:00,45.0,25.5,30.43,SE,139,0.0,2.0,46,0.00,,CLR,0.00,VWS V14.01,2013-12-13 15:43:00,
2013-12-13 10:48:00,45.8,25.7,30.43,SE,139,0.0,2.0,45,0.00,,CLR,0.00,VWS V14.01,2013-12-13 15:48:00,
2013-12-13 10:53:00,46.2,27.1,30.43,SE,139,0.0,2.0,47,0.00,,CLR,0.00,VWS V14.01,2013-12-13 15:53:00,
2013-12-13 10:58:00,46.1,26.0,30.43,SW,235,0.0,2.0,45,0.00,,CLR,0.00,VWS V14.01,2013-12-13 15:58:00,
2013-12-13 11:00:00,46.1,26.0,30.43,SW,235,0.0,2.0,45,0.00,,CLR,0.00,VWS V14.01,2013-12-13 16:00:00,
2013-12-13 11:03:00,46.7,26.0,30.42,SW,235,0.0,0.0,44,0.00,,CLR,0.00,VWS V14.01,2013-12-13 16:03:00,
2013-12-13 11:08:00,47.0,25.7,30.42,SW,235,1.0,1.0,43,0.00,,CLR,0.00,VWS V14.01,2013-12-13 16:08:00,
2013-12-13 11:13:00,46.5,23.5,30.42,SW,233,0.0,3.0,40,0.00,,CLR,0.00,VWS V14.01,2013-12-13 16:13:00,
2013-12-13 11:18:00,46.6,24.8,30.42,SW,232,0.0,3.0,42,0.00,,CLR,0.00,VWS V14.01,2013-12-13 16:18:00,
2013-12-13 11:23:00,47.4,25.5,30.42,SW,229,1.0,3.0,42,0.00,,CLR,0.00,VWS V14.01,2013-12-13 16:23:00,
2013-12-13 11:28:00,47.9,24.8,30.42,NE,47,0.0,3.0,40,0.00,,CLR,0.00,VWS V14.01,2013-12-13 16:28:00,
2013-12-13 11:30:00,47.9,24.8,30.42,NE,47,0.0,3.0,40,0.00,,CLR,0.00,VWS V14.01,2013-12-13 16:30:00,
2013-12-13 11:33:00,48.7,26.1,30.41,NE,47,0.0,1.0,41,0.00,,CLR,0.00,VWS V14.01,2013-12-13 16:33:00,
2013-12-13 11:38:00,49.9,25.3,30.41,NE,47,1.0,1.0,38,0.00,,CLR,0.00,VWS V14.01,2013-12-13 16:38:00,
2013-12-13 11:43:00,50.7,26.0,30.41,SSE,156,1.0,2.0,38,0.00,,CLR,0.00,VWS V14.01,2013-12-13 16:43:00,
2013-12-13 11:48:00,50.0,24.8,30.40,SW,231,0.0,3.0,37,0.00,,CLR,0.00,VWS V14.01,2013-12-13 16:48:00,
2013-12-13 11:53:00,50.6,24.0,30.40,NNW,334,0.0,3.0,35,0.00,,CLR,0.00,VWS V14.01,2013-12-13 16:53:00,
2013-12-13 11:58:00,51.7,25.0,30.39,NNE,12,0.0,5.0,35,0.00,,CLR,0.00,VWS V14.01,2013-12-13 16:58:00,
2013-12-13 12:00:00,51.8,25.0,30.39,NNE,23,1.0,5.0,35,0.00,,CLR,0.00,VWS V15.00,2013-12-13 17:00:00,
2013-12-13 12:03:00,52.9,25.3,30.39,NE,40,0.0,1.0,34,0.00,,CLR,0.00,VWS V14.01,2013-12-13 17:03:00,
2013-12-13 12:08:00,53.6,24.5,30.39,South,180,3.0,3.0,32,0.00,,CLR,0.00,VWS V14.01,2013-12-13 17:08:00,
2013-12-13 12:13:00,52.8,23.8,30.39,SSW,194,2.0,4.0,32,0.00,,CLR,0.00,VWS V14.01,2013-12-13 17:13:00,
2013-12-13 12:18:00,52.1,23.2,30.38,SSW,207,0.0,4.0,32,0.00,,CLR,0.00,VWS V14.01,2013-12-13 17:18:00,
2013-12-13 12:23:00,51.8,18.9,30.38,SE,144,1.0,4.0,27,0.00,,CLR,0.00,VWS V14.01,2013-12-13 17:23:00,
2013-12-13 12:28:00,51.4,19.4,30.38,South,183,0.0,4.0,28,0.00,,CLR,0.00,VWS V14.01,2013-12-13 17:28:00,
2013-12-13 12:30:00,51.5,19.5,30.38,South,183,0.0,4.0,28,0.00,,CLR,0.00,VWS V15.00,2013-12-13 17:30:00,
2013-12-13 12:33:00,52.4,20.3,30.37,South,183,0.0,3.0,28,0.00,,CLR,0.00,VWS V14.01,2013-12-13 17:33:00,
2013-12-13 12:38:00,52.7,19.7,30.37,WSW,238,3.0,3.0,27,0.00,,CLR,0.00,VWS V14.01,2013-12-13 17:38:00,
2013-12-13 12:43:00,52.0,19.1,30.37,SW,225,2.0,5.0,27,0.00,,CLR,0.00,VWS V14.01,2013-12-13 17:43:00,
2013-12-13 12:48:00,52.0,20.8,30.36,SW,225,1.0,5.0,29,0.00,,CLR,0.00,VWS V14.01,2013-12-13 17:48:00,
2013-12-13 12:53:00,52.8,20.6,30.36,SW,225,0.0,5.0,28,0.00,,CLR,0.00,VWS V14.01,2013-12-13 17:53:00,
2013-12-13 12:58:00,54.0,22.5,30.35,SW,219,2.0,5.0,29,0.00,,CLR,0.00,VWS V14.01,2013-12-13 17:58:00,
2013-12-13 13:00:00,54.1,22.6,30.35,SSW,201,3.0,5.0,29,0.00,,CLR,0.00,VWS V15.00,2013-12-13 18:00:00,
2013-12-13 13:03:00,53.1,20.0,30.35,SSE,155,0.0,6.0,27,0.00,,CLR,0.00,VWS V14.01,2013-12-13 18:03:00,
2013-12-13 13:08:00,52.8,20.6,30.35,SSE,166,1.0,6.0,28,0.00,,CLR,0.00,VWS V14.01,2013-12-13 18:08:00,
2013-12-13 13:13:00,53.3,21.0,30.35,NW,314,0.0,6.0,28,0.00,,CLR,0.00,VWS V14.01,2013-12-13 18:13:00,
2013-12-13 13:18:00,54.3,21.9,30.34,West,277,0.0,6.0,28,0.00,,CLR,0.00,VWS V14.01,2013-12-13 18:18:00,
2013-12-13 13:23:00,54.5,20.3,30.34,South,182,1.0,6.0,26,0.00,,CLR,0.00,VWS V14.01,2013-12-13 18:23:00,
2013-12-13 13:28:00,54.2,19.2,30.33,SW,221,3.0,6.0,25,0.00,,CLR,0.00,VWS V14.01,2013-12-13 18:28:00,
2013-12-13 13:30:00,54.1,19.1,30.33,SSW,194,0.0,6.0,25,0.00,,CLR,0.00,VWS V14.01,2013-12-13 18:30:00,
2013-12-13 13:33:00,54.4,18.4,30.34,SE,140,3.0,3.0,24,0.00,,CLR,0.00,VWS V14.01,2013-12-13 18:33:00,
2013-12-13 13:38:00,55.3,20.1,30.33,WSW,239,2.0,3.0,25,0.00,,CLR,0.00,VWS V14.01,2013-12-13 18:38:00,
2013-12-13 13:43:00,55.5,20.3,30.33,SSW,213,2.0,3.0,25,0.00,,CLR,0.00,VWS V14.01,2013-12-13 18:43:00,
2013-12-13 13:48:00,55.6,18.4,30.33,ESE,117,0.0,4.0,23,0.00,,CLR,0.00,VWS V14.01,2013-12-13 18:48:00,
2013-12-13 13:53:00,56.2,19.9,30.33,SE,138,0.0,4.0,24,0.00,,CLR,0.00,VWS V14.01,2013-12-13 18:53:00,
2013-12-13 13:58:00,57.0,20.6,30.33,SW,225,1.0,4.0,24,0.00,,CLR,0.00,VWS V14.01,2013-12-13 18:58:00,
2013-12-13 14:00:00,56.9,20.5,30.33,SW,225,1.0,4.0,24,0.00,,CLR,0.00,VWS V15.00,2013-12-13 19:00:00,
2013-12-13 14:03:00,56.7,21.3,30.33,SW,225,2.0,2.0,25,0.00,,CLR,0.00,VWS V14.01,2013-12-13 19:03:00,
2013-12-13 14:08:00,57.1,20.7,30.33,South,170,2.0,2.0,24,0.00,,CLR,0.00,VWS V14.01,2013-12-13 19:08:00,
2013-12-13 14:13:00,56.3,20.0,30.33,SW,219,3.0,4.0,24,0.00,,CLR,0.00,VWS V14.01,2013-12-13 19:13:00,
2013-12-13 14:18:00,56.6,21.2,30.32,SW,229,0.0,4.0,25,0.00,,CLR,0.00,VWS V14.01,2013-12-13 19:18:00,
2013-12-13 14:23:00,56.1,20.8,30.31,SSE,154,0.0,4.0,25,0.00,,CLR,0.00,VWS V14.01,2013-12-13 19:23:00,
2013-12-13 14:28:00,55.9,21.5,30.31,SE,143,0.0,4.0,26,0.00,,CLR,0.00,VWS V14.01,2013-12-13 19:28:00,
2013-12-13 14:30:00,55.8,21.5,30.31,SE,143,0.0,4.0,26,0.00,,CLR,0.00,VWS V14.01,2013-12-13 19:30:00,
2013-12-13 14:33:00,55.5,20.3,30.31,WSW,242,0.0,4.0,25,0.00,,CLR,0.00,VWS V14.01,2013-12-13 19:33:00,
2013-12-13 14:38:00,55.9,21.5,30.30,WSW,242,0.0,4.0,26,0.00,,CLR,0.00,VWS V14.01,2013-12-13 19:38:00,
2013-12-13 14:43:00,57.3,23.6,30.30,WSW,242,0.0,4.0,27,0.00,,CLR,0.00,VWS V14.01,2013-12-13 19:43:00,
2013-12-13 14:48:00,58.1,22.5,30.30,NE,44,0.0,5.0,25,0.00,,CLR,0.00,VWS V14.01,2013-12-13 19:48:00,
2013-12-13 14:53:00,57.1,20.7,30.30,SSW,207,0.0,5.0,24,0.00,,CLR,0.00,VWS V14.01,2013-12-13 19:53:00,
2013-12-13 14:58:00,56.5,20.2,30.30,SW,218,0.0,5.0,24,0.00,,CLR,0.00,VWS V14.01,2013-12-13 19:58:00,
2013-12-13 15:00:00,56.5,20.2,30.30,SW,218,0.0,5.0,24,0.00,,CLR,0.00,VWS V14.01,2013-12-13 20:00:00,
2013-12-13 15:03:00,56.9,21.5,30.30,SW,218,0.0,1.0,25,0.00,,CLR,0.00,VWS V14.01,2013-12-13 20:03:00,
2013-12-13 15:08:00,57.1,20.7,30.29,SSW,208,2.0,2.0,24,0.00,,CLR,0.00,VWS V14.01,2013-12-13 20:08:00,
2013-12-13 15:13:00,57.3,21.8,30.29,SE,132,0.0,4.0,25,0.00,,CLR,0.00,VWS V14.01,2013-12-13 20:13:00,
2013-12-13 15:18:00,57.5,20.0,30.28,SW,221,1.0,4.0,23,0.00,,CLR,0.00,VWS V14.01,2013-12-13 20:18:00,
2013-12-13 15:23:00,56.7,20.3,30.29,NNE,24,4.0,4.0,24,0.00,,CLR,0.00,VWS V14.01,2013-12-13 20:23:00,
2013-12-13 15:28:00,56.6,21.2,30.29,NNE,30,0.0,4.0,25,0.00,,CLR,0.00,VWS V14.01,2013-12-13 20:28:00,
2013-12-13 15:30:00,56.6,21.2,30.29,NNE,30,0.0,4.0,25,0.00,,CLR,0.00,VWS V14.01,2013-12-13 20:30:00,
2013-12-13 15:33:00,56.6,22.1,30.29,ENE,58,0.0,1.0,26,0.00,,CLR,0.00,VWS V14.01,2013-12-13 20:33:00,
2013-12-13 15:38:00,56.6,22.1,30.29,ENE,58,0.0,1.0,26,0.00,,CLR,0.00,VWS V14.01,2013-12-13 20:38:00,
2013-12-13 15:43:00,56.5,23.8,30.30,ENE,58,0.0,1.0,28,0.00,,CLR,0.00,VWS V14.01,2013-12-13 20:43:00,
2013-12-13 15:48:00,56.2,22.7,30.30,ENE,58,0.0,1.0,27,0.00,,CLR,0.00,VWS V14.01,2013-12-13 20:48:00,
2013-12-13 15:53:00,56.0,25.8,30.30,ENE,58,0.0,1.0,31,0.00,,CLR,0.00,VWS V14.01,2013-12-13 20:53:00,
2013-12-13 15:58:00,56.0,25.8,30.29,ENE,58,0.0,1.0,31,0.00,,CLR,0.00,VWS V14.01,2013-12-13 20:58:00,
2013-12-13 16:00:00,56.0,25.8,30.29,ENE,58,0.0,1.0,31,0.00,,CLR,0.00,VWS V14.01,2013-12-13 21:00:00,
2013-12-13 16:03:00,55.9,28.0,30.29,ENE,58,0.0,0.0,34,0.00,,CLR,0.00,VWS V14.01,2013-12-13 21:03:00,
2013-12-13 16:08:00,55.8,27.9,30.29,ENE,58,0.0,0.0,34,0.00,,CLR,0.00,VWS V14.01,2013-12-13 21:08:00,
2013-12-13 16:13:00,55.7,28.5,30.29,ENE,58,0.0,0.0,35,0.00,,CLR,0.00,VWS V14.01,2013-12-13 21:13:00,
2013-12-13 16:18:00,55.5,27.6,30.29,ENE,58,0.0,0.0,34,0.00,,CLR,0.00,VWS V14.01,2013-12-13 21:18:00,
2013-12-13 16:23:00,55.3,28.8,30.28,ENE,58,0.0,0.0,36,0.00,,CLR,0.00,VWS V14.01,2013-12-13 21:23:00,
2013-12-13 16:28:00,55.2,30.7,30.29,ENE,58,0.0,0.0,39,0.00,,CLR,0.00,VWS V14.01,2013-12-13 21:28:00,
2013-12-13 16:30:00,55.2,30.7,30.29,ENE,58,0.0,0.0,39,0.00,,CLR,0.00,VWS V15.00,2013-12-13 21:30:00,
2013-12-13 16:33:00,55.1,30.0,30.28,ENE,58,0.0,0.0,38,0.00,,CLR,0.00,VWS V14.01,2013-12-13 21:33:00,
2013-12-13 16:38:00,54.8,29.0,30.28,ENE,58,0.0,0.0,37,0.00,,CLR,0.00,VWS V14.01,2013-12-13 21:38:00,
2013-12-13 16:43:00,54.5,29.4,30.28,ENE,58,0.0,0.0,38,0.00,,CLR,0.00,VWS V14.01,2013-12-13 21:43:00,
2013-12-13 16:48:00,53.9,30.1,30.28,ENE,58,0.0,0.0,40,0.00,,CLR,0.00,VWS V14.01,2013-12-13 21:48:00,
2013-12-13 16:53:00,53.6,29.9,30.28,ENE,58,0.0,0.0,40,0.00,,CLR,0.00,VWS V14.01,2013-12-13 21:53:00,
2013-12-13 16:58:00,53.2,30.1,30.28,ENE,58,0.0,0.0,41,0.00,,CLR,0.00,VWS V14.01,2013-12-13 21:58:00,
2013-12-13 17:00:00,53.1,30.0,30.28,ENE,58,0.0,0.0,41,0.00,,CLR,0.00,VWS V14.01,2013-12-13 22:00:00,
2013-12-13 17:03:00,53.0,30.0,30.28,ENE,58,0.0,0.0,41,0.00,,CLR,0.00,VWS V14.01,2013-12-13 22:03:00,
2013-12-13 17:08:00,52.6,29.6,30.27,ENE,58,0.0,0.0,41,0.00,,CLR,0.00,VWS V14.01,2013-12-13 22:08:00,
2013-12-13 17:13:00,52.3,30.5,30.27,ENE,58,0.0,0.0,43,0.00,,CLR,0.00,VWS V14.01,2013-12-13 22:13:00,
2013-12-13 17:18:00,51.9,31.8,30.28,ENE,58,0.0,0.0,46,0.00,,CLR,0.00,VWS V14.01,2013-12-13 22:18:00,
2013-12-13 17:23:00,51.7,31.6,30.28,ENE,58,0.0,0.0,46,0.00,,CLR,0.00,VWS V14.01,2013-12-13 22:23:00,
2013-12-13 17:28:00,51.4,31.9,30.28,ENE,58,0.0,0.0,47,0.00,,CLR,0.00,VWS V14.01,2013-12-13 22:28:00,
2013-12-13 17:30:00,51.3,31.8,30.28,ENE,58,0.0,0.0,47,0.00,,CLR,0.00,VWS V15.00,2013-12-13 22:30:00,
2013-12-13 17:33:00,51.1,32.6,30.28,ENE,58,0.0,0.0,49,0.00,,CLR,0.00,VWS V14.01,2013-12-13 22:33:00,
2013-12-13 17:38:00,50.8,33.3,30.27,ENE,58,0.0,0.0,51,0.00,,CLR,0.00,VWS V14.01,2013-12-13 22:38:00,
2013-12-13 17:43:00,50.1,31.2,30.27,ENE,58,0.0,0.0,48,0.00,,CLR,0.00,VWS V14.01,2013-12-13 22:43:00,
2013-12-13 17:48:00,49.7,30.3,30.27,ENE,58,0.0,0.0,47,0.00,,CLR,0.00,VWS V14.01,2013-12-13 22:48:00,
2013-12-13 17:53:00,49.4,31.1,30.27,ENE,58,0.0,0.0,49,0.00,,CLR,0.00,VWS V14.01,2013-12-13 22:53:00,
2013-12-13 17:58:00,49.0,31.7,30.27,ENE,58,0.0,0.0,51,0.00,,CLR,0.00,VWS V14.01,2013-12-13 22:58:00,
2013-12-13 18:00:00,48.9,31.6,30.27,ENE,58,0.0,0.0,51,0.00,,FEW095,0.00,VWS V15.00,2013-12-13 23:00:00,
2013-12-13 18:03:00,48.7,30.9,30.27,ENE,58,0.0,0.0,50,0.00,,CLR,0.00,VWS V14.01,2013-12-13 23:03:00,
2013-12-13 18:08:00,48.4,32.5,30.27,ENE,58,0.0,0.0,54,0.00,,CLR,0.00,VWS V14.01,2013-12-13 23:08:00,
2013-12-13 18:13:00,48.2,32.3,30.27,ENE,58,0.0,0.0,54,0.00,,CLR,0.00,VWS V14.01,2013-12-13 23:13:00,
2013-12-13 18:18:00,47.9,32.5,30.28,ENE,58,0.0,0.0,55,0.00,,CLR,0.00,VWS V14.01,2013-12-13 23:18:00,
2013-12-13 18:23:00,47.5,32.6,30.28,ENE,58,0.0,0.0,56,0.00,,CLR,0.00,VWS V14.01,2013-12-13 23:23:00,
2013-12-13 18:28:00,47.3,32.8,30.28,ENE,58,0.0,0.0,57,0.00,,CLR,0.00,VWS V14.01,2013-12-13 23:28:00,
2013-12-13 18:30:00,47.3,33.3,30.28,ENE,58,0.0,0.0,58,0.00,,CLR,0.00,VWS V14.01,2013-12-13 23:30:00,
2013-12-13 18:33:00,47.1,32.7,30.28,ENE,58,0.0,0.0,57,0.00,,CLR,0.00,VWS V14.01,2013-12-13 23:33:00,
2013-12-13 18:38:00,47.0,32.1,30.27,ENE,58,0.0,0.0,56,0.00,,CLR,0.00,VWS V14.01,2013-12-13 23:38:00,
2013-12-13 18:43:00,46.9,32.9,30.28,ENE,58,0.0,0.0,58,0.00,,CLR,0.00,VWS V14.01,2013-12-13 23:43:00,
2013-12-13 18:48:00,46.9,32.9,30.28,ENE,58,0.0,0.0,58,0.00,,CLR,0.00,VWS V14.01,2013-12-13 23:48:00,
2013-12-13 18:53:00,46.8,32.4,30.28,ENE,58,0.0,0.0,57,0.00,,CLR,0.00,VWS V14.01,2013-12-13 23:53:00,
2013-12-13 18:58:00,46.9,32.9,30.28,ENE,58,0.0,0.0,58,0.00,,CLR,0.00,VWS V14.01,2013-12-13 23:58:00,
2013-12-13 19:00:00,46.9,32.9,30.28,ENE,58,0.0,0.0,58,0.00,,CLR,0.00,VWS V14.01,2013-12-14 00:00:00,
2013-12-13 19:03:00,46.8,32.8,30.29,ENE,58,0.0,0.0,58,0.00,,CLR,0.00,VWS V14.01,2013-12-14 00:03:00,
2013-12-13 19:08:00,46.7,32.7,30.29,ENE,58,0.0,0.0,58,0.00,,CLR,0.00,VWS V14.01,2013-12-14 00:08:00,
2013-12-13 19:13:00,46.7,32.7,30.29,ENE,58,0.0,0.0,58,0.00,,CLR,0.00,VWS V14.01,2013-12-14 00:13:00,
2013-12-13 19:18:00,46.6,32.2,30.29,ENE,58,0.0,0.0,57,0.00,,CLR,0.00,VWS V14.01,2013-12-14 00:18:00,
2013-12-13 19:23:00,46.6,31.8,30.30,ENE,58,0.0,0.0,56,0.00,,CLR,0.00,VWS V14.01,2013-12-14 00:23:00,
2013-12-13 19:28:00,46.5,31.2,30.31,ENE,58,0.0,0.0,55,0.00,,CLR,0.00,VWS V14.01,2013-12-14 00:28:00,
2013-12-13 19:30:00,46.5,31.2,30.31,ENE,58,0.0,0.0,55,0.00,,CLR,0.00,VWS V14.01,2013-12-14 00:30:00,
2013-12-13 19:33:00,46.4,32.0,30.31,ENE,58,0.0,0.0,57,0.00,,CLR,0.00,VWS V14.01,2013-12-14 00:33:00,
2013-12-13 19:38:00,46.4,32.0,30.31,ENE,58,0.0,0.0,57,0.00,,CLR,0.00,VWS V14.01,2013-12-14 00:38:00,
2013-12-13 19:43:00,46.3,31.5,30.31,ENE,58,0.0,0.0,56,0.00,,CLR,0.00,VWS V14.01,2013-12-14 00:43:00,
2013-12-13 19:48:00,46.2,30.9,30.31,ENE,58,0.0,0.0,55,0.00,,CLR,0.00,VWS V14.01,2013-12-14 00:48:00,
2013-12-13 19:53:00,46.1,32.6,30.32,ENE,58,0.0,0.0,59,0.00,,CLR,0.00,VWS V14.01,2013-12-14 00:53:00,
2013-12-13 19:58:00,46.0,32.5,30.32,ENE,58,0.0,0.0,59,0.00,,CLR,0.00,VWS V14.01,2013-12-14 00:58:00,
2013-12-13 20:00:00,46.0,32.9,30.32,ENE,58,0.0,0.0,60,0.00,,CLR,0.00,VWS V15.00,2013-12-14 01:00:00,
2013-12-13 20:03:00,46.0,32.9,30.31,ENE,58,0.0,0.0,60,0.00,,CLR,0.00,VWS V14.01,2013-12-14 01:03:00,
2013-12-13 20:08:00,45.8,32.3,30.31,ENE,58,0.0,0.0,59,0.00,,CLR,0.00,VWS V14.01,2013-12-14 01:08:00,
2013-12-13 20:13:00,45.7,31.8,30.31,ENE,58,0.0,0.0,58,0.00,,CLR,0.00,VWS V14.01,2013-12-14 01:13:00,
2013-12-13 20:18:00,45.5,31.2,30.30,ENE,58,0.0,0.0,57,0.00,,CLR,0.00,VWS V14.01,2013-12-14 01:18:00,
2013-12-13 20:23:00,45.4,31.5,30.30,ENE,58,0.0,0.0,58,0.00,,CLR,0.00,VWS V14.01,2013-12-14 01:23:00,
2013-12-13 20:28:00,45.3,31.8,30.29,ENE,58,0.0,0.0,59,0.00,,CLR,0.00,VWS V14.01,2013-12-14 01:28:00,
2013-12-13 20:30:00,45.2,31.7,30.29,ENE,58,0.0,0.0,59,0.00,,CLR,0.00,VWS V14.01,2013-12-14 01:30:00,
2013-12-13 20:33:00,45.1,31.6,30.29,ENE,58,0.0,0.0,59,0.00,,CLR,0.00,VWS V14.01,2013-12-14 01:33:00,
2013-12-13 20:38:00,45.0,32.4,30.28,ENE,58,0.0,0.0,61,0.00,,CLR,0.00,VWS V14.01,2013-12-14 01:38:00,
2013-12-13 20:43:00,44.9,32.3,30.28,ENE,58,0.0,0.0,61,0.00,,CLR,0.00,VWS V14.01,2013-12-14 01:43:00,
2013-12-13 20:48:00,44.9,33.1,30.29,ENE,58,0.0,0.0,63,0.00,,CLR,0.00,VWS V14.01,2013-12-14 01:48:00,
2013-12-13 20:53:00,44.8,33.8,30.29,ENE,58,0.0,0.0,65,0.00,,CLR,0.00,VWS V14.01,2013-12-14 01:53:00,
2013-12-13 20:58:00,44.7,33.7,30.29,ENE,58,0.0,0.0,65,0.00,,CLR,0.00,VWS V14.01,2013-12-14 01:58:00,
2013-12-13 21:00:00,44.7,33.7,30.29,ENE,58,0.0,0.0,65,0.00,,CLR,0.00,VWS V14.01,2013-12-14 02:00:00,
2013-12-13 21:03:00,44.7,34.4,30.30,ENE,58,0.0,0.0,67,0.00,,CLR,0.00,VWS V14.01,2013-12-14 02:03:00,
2013-12-13 21:08:00,44.6,33.6,30.30,ENE,58,0.0,0.0,65,0.00,,CLR,0.00,VWS V14.01,2013-12-14 02:08:00,
2013-12-13 21:12:00,44.6,33.2,30.29,ENE,58,0.0,0.0,64,0.00,,CLR,0.00,VWS V14.01,2013-12-14 02:12:00,
2013-12-13 21:17:00,44.7,32.9,30.28,ENE,58,0.0,0.0,63,0.00,,CLR,0.00,VWS V14.01,2013-12-14 02:17:00,
2013-12-13 21:22:00,44.8,32.6,30.28,ENE,58,0.0,0.0,62,0.00,,CLR,0.00,VWS V14.01,2013-12-14 02:22:00,
2013-12-13 21:27:00,44.9,32.7,30.27,ENE,58,0.0,0.0,62,0.00,,CLR,0.00,VWS V14.01,2013-12-14 02:27:00,
2013-12-13 21:30:00,44.9,32.7,30.27,ENE,58,0.0,0.0,62,0.00,,CLR,0.00,VWS V15.00,2013-12-14 02:30:00,
2013-12-13 21:32:00,44.9,32.7,30.27,ENE,58,0.0,0.0,62,0.00,,CLR,0.00,VWS V14.01,2013-12-14 02:32:00,
2013-12-13 21:37:00,44.9,32.7,30.27,ENE,58,0.0,0.0,62,0.00,,CLR,0.00,VWS V14.01,2013-12-14 02:37:00,
2013-12-13 21:42:00,44.9,32.7,30.27,ENE,58,0.0,0.0,62,0.00,,CLR,0.00,VWS V14.01,2013-12-14 02:42:00,
2013-12-13 21:47:00,44.9,32.7,30.27,ENE,58,0.0,0.0,62,0.00,,CLR,0.00,VWS V14.01,2013-12-14 02:47:00,
2013-12-13 21:52:00,44.9,32.7,30.27,ENE,58,0.0,1.0,62,0.00,,CLR,0.00,VWS V14.01,2013-12-14 02:52:00,
2013-12-13 21:57:00,44.9,33.1,30.27,ENE,58,0.0,1.0,63,0.00,,CLR,0.00,VWS V14.01,2013-12-14 02:57:00,
2013-12-13 22:00:00,44.9,32.7,30.27,ENE,58,0.0,1.0,62,0.00,,CLR,0.00,VWS V15.00,2013-12-14 03:00:00,
2013-12-13 22:02:00,44.9,33.5,30.28,ENE,58,0.0,1.0,64,0.00,,CLR,0.00,VWS V14.01,2013-12-14 03:02:00,
2013-12-13 22:07:00,44.8,33.8,30.27,ENE,58,0.0,1.0,65,0.00,,CLR,0.00,VWS V14.01,2013-12-14 03:07:00,
2013-12-13 22:12:00,44.7,33.3,30.27,ENE,58,0.0,1.0,64,0.00,,CLR,0.00,VWS V14.01,2013-12-14 03:12:00,
2013-12-13 22:17:00,44.7,32.9,30.27,ENE,58,0.0,1.0,63,0.00,,CLR,0.00,VWS V14.01,2013-12-14 03:17:00,
2013-12-13 22:22:00,44.6,33.6,30.27,ENE,58,0.0,1.0,65,0.00,,CLR,0.00,VWS V14.01,2013-12-14 03:22:00,
2013-12-13 22:27:00,44.6,34.0,30.28,ENE,58,0.0,1.0,66,0.00,,CLR,0.00,VWS V14.01,2013-12-14 03:27:00,
2013-12-13 22:30:00,44.6,33.6,30.28,ENE,58,0.0,1.0,65,0.00,,CLR,0.00,VWS V14.01,2013-12-14 03:30:00,
2013-12-13 22:32:00,44.6,33.6,30.28,ENE,58,0.0,0.0,65,0.00,,CLR,0.00,VWS V14.01,2013-12-14 03:32:00,
2013-12-13 22:37:00,44.6,34.0,30.28,ENE,58,0.0,0.0,66,0.00,,CLR,0.00,VWS V14.01,2013-12-14 03:37:00,
2013-12-13 22:42:00,44.6,34.3,30.28,ENE,58,0.0,0.0,67,0.00,,CLR,0.00,VWS V14.01,2013-12-14 03:42:00,
2013-12-13 22:47:00,44.6,33.6,30.27,ENE,58,0.0,1.0,65,0.00,,CLR,0.00,VWS V14.01,2013-12-14 03:47:00,
2013-12-13 22:52:00,44.7,34.0,30.27,ENE,58,0.0,1.0,66,0.00,,CLR,0.00,VWS V14.01,2013-12-14 03:52:00,
2013-12-13 22:57:00,44.8,33.8,30.27,ENE,58,0.0,1.0,65,0.00,,CLR,0.00,VWS V14.01,2013-12-14 03:57:00,
2013-12-13 23:00:00,44.9,33.9,30.27,ENE,58,0.0,1.0,65,0.00,,CLR,0.00,VWS V14.01,2013-12-14 04:00:00,
2013-12-13 23:02:00,44.9,33.5,30.26,ENE,58,0.0,0.0,64,0.00,,CLR,0.00,VWS V14.01,2013-12-14 04:02:00,
2013-12-13 23:07:00,45.0,33.6,30.26,ENE,58,0.0,0.0,64,0.00,,CLR,0.00,VWS V14.01,2013-12-14 04:07:00,
2013-12-13 23:12:00,45.1,33.3,30.25,ENE,58,0.0,0.0,63,0.00,,CLR,0.00,VWS V14.01,2013-12-14 04:12:00,
2013-12-13 23:17:00,45.1,33.7,30.26,ENE,58,0.0,0.0,64,0.00,,CLR,0.00,VWS V14.01,2013-12-14 04:17:00,
2013-12-13 23:22:00,44.9,33.9,30.26,ENE,58,0.0,0.0,65,0.00,,CLR,0.00,VWS V14.01,2013-12-14 04:22:00,
2013-12-13 23:27:00,44.7,33.7,30.25,ENE,58,0.0,0.0,65,0.00,,CLR,0.00,VWS V14.01,2013-12-14 04:27:00,
2013-12-13 23:30:00,44.6,33.2,30.25,ENE,58,0.0,0.0,64,0.00,,CLR,0.00,VWS V15.00,2013-12-14 04:30:00,
2013-12-13 23:32:00,44.6,33.6,30.25,ENE,58,0.0,0.0,65,0.00,,CLR,0.00,VWS V14.01,2013-12-14 04:32:00,
2013-12-13 23:37:00,44.5,33.5,30.25,ENE,58,0.0,0.0,65,0.00,,CLR,0.00,VWS V14.01,2013-12-14 04:37:00,
2013-12-13 23:42:00,44.5,32.3,30.24,ENE,58,0.0,0.0,62,0.00,,CLR,0.00,VWS V14.01,2013-12-14 04:42:00,
2013-12-13 23:47:00,44.6,32.4,30.24,ENE,58,0.0,1.0,62,0.00,,CLR,0.00,VWS V14.01,2013-12-14 04:47:00,
2013-12-13 23:52:00,44.6,32.4,30.24,ENE,58,0.0,1.0,62,0.00,,CLR,0.00,VWS V14.01,2013-12-14 04:52:00,
2013-12-13 23:57:00,44.6,32.4,30.25,ENE,58,0.0,1.0,62,0.00,,CLR,0.00,VWS V14.01,2013-12-14 04:57:00,